KCLK/CLK METAR and TAF weather

Enter ICAO airport designator
Station Type Date Time Source
KCLK METAR 2022/12/10 01:55 UTC NOAA

KCLK 100155Z AUTO 10003KT 10SM SCT028 BKN034 OVC043 08/06 A3008 RMK AO2 LTG DSNT N


Station Type Date Time Source
KCLK Decoded METAR 2022/12/10 01:55 UTC NOAA

Clinton, Clinton Regional Airport, OK, United States (KCLK) 35-32-17N 098-55-17W
Dec 09, 2022 - 08:55 PM EST / 2022.12.10 0155 UTC
Wind: from the E (100 degrees) at 3 MPH (3 KT):0
Visibility: 10 mile(s):0
Sky conditions: overcast
Weather: Lightning observed
Temperature: 46 F (8 C)
Dew Point: 42 F (6 C)
Relative Humidity: 87%
Pressure (altimeter): 30.08 in. Hg (1018 hPa)
ob: KCLK 100155Z AUTO 10003KT 10SM SCT028 BKN034 OVC043 08/06 A3008 RMK AO2 LTG DSNT N
cycle: 2

Station Type Date Time Source
KCLK TAF UTC NOAA

Error!

Example: see airport list